Time;durP1;ratioP1;P1;durP2;ratioP2;P2;SDS_P1;SDS_P2;PMS_P1;PMS_P2;Temp;Humidity;BMP_temperature;BMP_pressure;BME280_temperature;BME280_humidity;BME280_pressure;Samples;Min_cycle;Max_cycle;Signal;HPM_P1;HPM_P2
2022/05/17 00:01:04;;;;;;;;;;;15.40;99.90;;;;;;10248055;28;84164;-53
2022/05/17 00:06:06;;;;;;;;;;;15.40;99.90;;;;;;10248083;28;84969;-54
2022/05/17 00:11:06;;;;;;;;;;;15.30;99.90;;;;;;10248600;28;84569;-55
2022/05/17 00:16:07;;;;;;;;;;;15.30;99.90;;;;;;10247751;28;84232;-56
2022/05/17 00:21:08;;;;;;;;;;;15.20;99.90;;;;;;10247510;28;84992;-57
2022/05/17 00:26:09;;;;;;;;;;;15.20;99.90;;;;;;10247633;28;84636;-56
2022/05/17 00:31:09;;;;;;;;;;;15.20;99.90;;;;;;10229827;28;87490;-55
2022/05/17 00:36:10;;;;;;;;;;;15.10;99.90;;;;;;10247561;28;85190;-57
2022/05/17 00:41:10;;;;;;;;;;;15.00;99.90;;;;;;10229217;28;85075;-54
2022/05/17 00:46:11;;;;;;;;;;;15.00;99.90;;;;;;10247671;28;84817;-54
2022/05/17 00:51:11;;;;;;;;;;;15.00;99.90;;;;;;10246458;28;84232;-54
2022/05/17 00:56:14;;;;;;;;;;;14.90;99.90;;;;;;10248330;28;84840;-58
2022/05/17 01:01:23;;;;;;;;;;;14.90;99.90;;;;;;10247936;28;84093;-56
2022/05/17 01:06:30;;;;;;;;;;;14.90;99.90;;;;;;10230642;28;86177;-57
2022/05/17 01:11:31;;;;;;;;;;;14.90;99.90;;;;;;10248161;28;84918;-53
2022/05/17 01:16:32;;;;;;;;;;;14.90;99.90;;;;;;10246485;28;84922;-53
2022/05/17 01:21:32;;;;;;;;;;;14.80;99.90;;;;;;10245918;28;84832;-52
2022/05/17 01:26:35;;;;;;;;;;;14.80;99.90;;;;;;10246100;28;84132;-53
2022/05/17 01:31:38;;;;;;;;;;;14.80;99.90;;;;;;10244617;28;84438;-52
2022/05/17 01:36:40;;;;;;;;;;;14.90;99.90;;;;;;10246090;28;84905;-53
2022/05/17 01:41:40;;;;;;;;;;;14.80;99.90;;;;;;10244801;28;84485;-56
2022/05/17 01:46:41;;;;;;;;;;;14.80;99.90;;;;;;10227370;28;84897;-51
2022/05/17 01:51:41;;;;;;;;;;;14.80;99.90;;;;;;10245165;28;84088;-53
2022/05/17 01:56:42;;;;;;;;;;;14.70;99.90;;;;;;10245280;28;86416;-55
2022/05/17 02:01:44;;;;;;;;;;;14.70;99.90;;;;;;10245395;28;84755;-54
2022/05/17 02:06:45;;;;;;;;;;;14.70;99.90;;;;;;10245610;28;85742;-54
2022/05/17 02:11:45;;;;;;;;;;;14.80;99.90;;;;;;10245766;28;84627;-55
2022/05/17 02:16:46;;;;;;;;;;;14.80;99.90;;;;;;10240616;28;85495;-58
2022/05/17 02:21:47;;;;;;;;;;;14.70;99.90;;;;;;10227655;28;86752;-53
2022/05/17 02:26:48;;;;;;;;;;;14.80;99.90;;;;;;10243029;28;84947;-53
2022/05/17 02:31:49;;;;;;;;;;;14.70;99.90;;;;;;10243183;28;84412;-56
2022/05/17 02:36:49;;;;;;;;;;;14.60;99.90;;;;;;10244880;28;84196;-54
2022/05/17 02:41:50;;;;;;;;;;;14.60;99.90;;;;;;10244469;28;85206;-53
2022/05/17 02:46:50;;;;;;;;;;;14.60;99.90;;;;;;10239567;28;84952;-56
2022/05/17 02:51:51;;;;;;;;;;;14.50;99.90;;;;;;10250936;28;85500;-55
2022/05/17 02:56:52;;;;;;;;;;;14.60;99.90;;;;;;10244466;28;85391;-53
2022/05/17 03:01:52;;;;;;;;;;;14.60;99.90;;;;;;10237389;28;84953;-58
2022/05/17 03:06:53;;;;;;;;;;;14.70;99.90;;;;;;10226394;28;86044;-56
2022/05/17 03:11:54;;;;;;;;;;;14.60;99.90;;;;;;10243398;28;84975;-56
2022/05/17 03:16:55;;;;;;;;;;;14.50;99.90;;;;;;10249461;28;84925;-52
2022/05/17 03:21:55;;;;;;;;;;;14.50;99.90;;;;;;10238895;28;85011;-58
2022/05/17 03:26:56;;;;;;;;;;;14.50;99.90;;;;;;10257982;28;84887;-59
2022/05/17 03:31:56;;;;;;;;;;;14.50;99.90;;;;;;10251825;28;84908;-53
2022/05/17 03:36:57;;;;;;;;;;;14.50;99.90;;;;;;10250585;28;85028;-53
2022/05/17 03:41:57;;;;;;;;;;;14.50;99.90;;;;;;10244585;28;84164;-53
2022/05/17 03:46:58;;;;;;;;;;;14.50;99.90;;;;;;10259457;28;84258;-55
2022/05/17 03:51:58;;;;;;;;;;;14.50;99.90;;;;;;10254895;28;84841;-57
2022/05/17 03:56:59;;;;;;;;;;;14.60;99.90;;;;;;10251087;28;84775;-54
2022/05/17 04:02:01;;;;;;;;;;;14.60;99.90;;;;;;10223686;28;84801;-57
2022/05/17 04:07:03;;;;;;;;;;;14.60;99.90;;;;;;10251505;28;84755;-56
2022/05/17 04:12:04;;;;;;;;;;;14.70;99.90;;;;;;10250388;28;84752;-53
2022/05/17 04:17:05;;;;;;;;;;;14.70;99.90;;;;;;10250942;28;84882;-56
2022/05/17 04:22:08;;;;;;;;;;;14.70;99.90;;;;;;10257843;28;84255;-57
2022/05/17 04:27:09;;;;;;;;;;;14.70;99.90;;;;;;10248664;28;84256;-58
2022/05/17 04:32:09;;;;;;;;;;;14.70;99.90;;;;;;10249062;28;84233;-56
2022/05/17 04:37:10;;;;;;;;;;;14.80;99.90;;;;;;10249842;28;84991;-52
2022/05/17 04:42:10;;;;;;;;;;;14.90;99.90;;;;;;10246151;28;84957;-56
2022/05/17 04:47:11;;;;;;;;;;;15.20;99.90;;;;;;10248435;28;84118;-57
2022/05/17 04:52:12;;;;;;;;;;;15.50;99.90;;;;;;10231125;28;86160;-55
2022/05/17 04:57:12;;;;;;;;;;;15.70;99.90;;;;;;10247659;28;84314;-59
2022/05/17 05:02:13;;;;;;;;;;;15.80;99.90;;;;;;10247101;28;84389;-59
2022/05/17 05:07:14;;;;;;;;;;;16.00;99.90;;;;;;10223864;28;84807;-55
2022/05/17 05:12:14;;;;;;;;;;;16.00;99.90;;;;;;10235246;28;84021;-52
2022/05/17 05:17:15;;;;;;;;;;;16.10;99.90;;;;;;10247870;28;84961;-54
2022/05/17 05:22:16;;;;;;;;;;;16.20;99.90;;;;;;10224643;28;86723;-57
2022/05/17 05:27:16;;;;;;;;;;;16.20;99.90;;;;;;10249015;28;84050;-59
2022/05/17 05:32:17;;;;;;;;;;;16.30;99.90;;;;;;10248529;28;84045;-57
2022/05/17 05:37:17;;;;;;;;;;;16.40;99.90;;;;;;10245059;28;84000;-57
2022/05/17 05:42:18;;;;;;;;;;;16.60;99.90;;;;;;10246808;28;85439;-55
2022/05/17 05:47:18;;;;;;;;;;;16.70;99.90;;;;;;10230378;28;84163;-53
2022/05/17 05:52:19;;;;;;;;;;;16.90;99.90;;;;;;10246109;28;84458;-56
2022/05/17 05:57:20;;;;;;;;;;;17.20;99.40;;;;;;10289873;22;84163;-52
2022/05/17 06:02:20;;;;;;;;;;;17.50;50.20;;;;;;10285595;28;84382;-51
2022/05/17 06:07:21;;;;;;;;;;;17.90;1.00;;;;;;10286946;28;84895;-52
2022/05/17 06:12:21;;;;;;;;;;;18.20;1.00;;;;;;10286032;28;85337;-54
2022/05/17 06:17:27;;;;;;;;;;;18.50;1.00;;;;;;10287907;28;84736;-53
2022/05/17 06:22:28;;;;;;;;;;;18.80;1.00;;;;;;10286091;28;84849;-54
2022/05/17 06:27:28;;;;;;;;;;;18.90;1.00;;;;;;10285755;28;85190;-54
2022/05/17 06:32:29;;;;;;;;;;;19.10;1.00;;;;;;10287076;28;84242;-53
2022/05/17 06:37:30;;;;;;;;;;;19.10;1.00;;;;;;10286827;28;84875;-52
2022/05/17 06:42:30;;;;;;;;;;;19.20;1.00;;;;;;10287205;28;85199;-53
2022/05/17 06:47:31;;;;;;;;;;;19.30;1.00;;;;;;10287753;28;84957;-53
2022/05/17 06:52:33;;;;;;;;;;;19.40;1.00;;;;;;10285521;28;84811;-53
2022/05/17 06:57:33;;;;;;;;;;;19.60;1.00;;;;;;10268561;28;86822;-49
2022/05/17 07:02:35;;;;;;;;;;;19.70;1.00;;;;;;10286005;28;84820;-51
2022/05/17 07:07:36;;;;;;;;;;;20.00;1.00;;;;;;10286233;28;85675;-50
2022/05/17 07:17:57;;;;;;;;;;;20.60;1.00;;;;;;10278269;28;85299;-54
2022/05/17 07:22:57;;;;;;;;;;;21.10;1.00;;;;;;10279016;28;85215;-50
2022/05/17 07:27:58;;;;;;;;;;;21.60;1.00;;;;;;10284872;28;84929;-56
2022/05/17 07:32:59;;;;;;;;;;;22.10;1.00;;;;;;10314427;28;84197;-57
2022/05/17 07:38:02;;;;;;;;;;;22.40;1.00;;;;;;10292088;28;84331;-52
2022/05/17 07:43:03;;;;;;;;;;;22.80;1.00;;;;;;10268682;28;86007;-49
2022/05/17 07:48:04;;;;;;;;;;;23.20;99.90;;;;;;10285182;28;84765;-49
2022/05/17 07:53:08;;;;;;;;;;;23.50;99.90;;;;;;10284776;28;84075;-50
2022/05/17 07:58:09;;;;;;;;;;;23.80;1.00;;;;;;10283967;28;84338;-50
2022/05/17 08:03:12;;;;;;;;;;;24.00;1.00;;;;;;10288959;28;84123;-51
2022/05/17 08:08:13;;;;;;;;;;;24.00;1.00;;;;;;10291792;28;85411;-50
2022/05/17 08:13:15;;;;;;;;;;;24.00;1.00;;;;;;10291717;28;84841;-57
2022/05/17 08:18:16;;;;;;;;;;;23.60;1.00;;;;;;10290084;28;84197;-54
2022/05/17 08:23:17;;;;;;;;;;;23.60;1.00;;;;;;10292005;28;84102;-48
2022/05/17 08:28:18;;;;;;;;;;;24.60;1.00;;;;;;10290495;28;84824;-51
2022/05/17 08:33:20;;;;;;;;;;;24.20;1.00;;;;;;10291328;28;84354;-52
2022/05/17 08:38:22;;;;;;;;;;;23.50;1.00;;;;;;10290777;28;84824;-53
2022/05/17 08:43:25;;;;;;;;;;;22.80;1.00;;;;;;10290467;28;84861;-52
2022/05/17 08:48:27;;;;;;;;;;;22.40;89.60;;;;;;10290550;28;84206;-54
2022/05/17 08:53:28;;;;;;;;;;;22.00;99.90;;;;;;10256387;28;85866;-50
2022/05/17 08:58:30;;;;;;;;;;;22.20;99.90;;;;;;10289829;28;84766;-54
2022/05/17 09:03:32;;;;;;;;;;;22.90;1.00;;;;;;10290354;28;84889;-53
2022/05/17 09:08:38;;;;;;;;;;;23.10;1.00;;;;;;10290027;28;84085;-55
2022/05/17 09:13:45;;;;;;;;;;;23.10;1.00;;;;;;10271510;28;84155;-50
2022/05/17 09:18:46;;;;;;;;;;;23.50;1.00;;;;;;10289102;28;84922;-53
2022/05/17 09:23:47;;;;;;;;;;;23.30;99.90;;;;;;10289360;28;84743;-54
2022/05/17 09:28:52;;;;;;;;;;;23.80;99.90;;;;;;10289583;28;84873;-49
2022/05/17 09:33:53;;;;;;;;;;;23.90;1.00;;;;;;10288327;28;84660;-54
2022/05/17 09:38:54;;;;;;;;;;;23.80;1.00;;;;;;10289627;28;84163;-54
2022/05/17 09:43:59;;;;;;;;;;;23.90;99.90;;;;;;10288884;28;84400;-54
2022/05/17 09:54:29;;;;;;;;;;;24.20;99.90;;;;;;10270369;28;86844;-57
2022/05/17 09:59:30;;;;;;;;;;;24.30;91.90;;;;;;10288248;28;84890;-52
2022/05/17 10:04:30;;;;;;;;;;;24.30;1.00;;;;;;10288431;28;84123;-54
2022/05/17 10:09:32;;;;;;;;;;;24.50;64.60;;;;;;10270563;28;86226;-55
2022/05/17 10:14:33;;;;;;;;;;;24.60;1.00;;;;;;10270862;28;84110;-51
2022/05/17 10:19:55;;;;;;;;;;;24.50;1.00;;;;;;10287524;28;85717;-53
2022/05/17 10:25:01;;;;;;;;;;;23.70;1.00;;;;;;10287967;28;84907;-52
2022/05/17 10:30:10;;;;;;;;;;;23.60;99.90;;;;;;10269524;28;87021;-51
2022/05/17 10:35:27;;;;;;;;;;;23.70;99.90;;;;;;10287431;28;84726;-51
2022/05/17 10:40:32;;;;;;;;;;;23.30;99.90;;;;;;10286751;28;84144;-53
2022/05/17 10:45:33;;;;;;;;;;;23.00;1.00;;;;;;10287051;28;84112;-51
2022/05/17 10:50:41;;;;;;;;;;;22.80;99.90;;;;;;10286789;28;84204;-52
2022/05/17 10:55:51;;;;;;;;;;;22.50;99.90;;;;;;10269624;28;84897;-50
2022/05/17 11:00:58;;;;;;;;;;;22.30;99.90;;;;;;10286791;28;84509;-54
2022/05/17 11:06:17;;;;;;;;;;;22.30;99.90;;;;;;10287115;28;84918;-55
2022/05/17 11:11:37;;;;;;;;;;;21.90;1.00;;;;;;10286556;28;84515;-57
2022/05/17 11:16:40;;;;;;;;;;;21.90;1.00;;;;;;10269035;28;85066;-52
2022/05/17 11:21:52;;;;;;;;;;;21.80;1.00;;;;;;10268409;28;84223;-55
2022/05/17 11:27:01;;;;;;;;;;;21.70;1.00;;;;;;10269041;28;84062;-51
2022/05/17 11:32:11;;;;;;;;;;;21.50;1.00;;;;;;10268135;28;85762;-52
2022/05/17 11:37:30;;;;;;;;;;;21.50;1.00;;;;;;10290082;28;85098;-53
2022/05/17 11:42:35;;;;;;;;;;;21.50;1.00;;;;;;10292813;28;84782;-50
2022/05/17 11:47:35;;;;;;;;;;;21.50;1.00;;;;;;10274177;28;85893;-53
2022/05/17 11:52:36;;;;;;;;;;;21.40;1.00;;;;;;10292963;28;84948;-53
2022/05/17 11:57:38;;;;;;;;;;;21.20;99.90;;;;;;10305176;22;84140;-56
2022/05/17 12:02:45;;;;;;;;;;;21.10;99.90;;;;;;10291889;28;84099;-56
2022/05/17 12:07:46;;;;;;;;;;;20.90;99.90;;;;;;10322591;28;84140;-57
2022/05/17 12:13:06;;;;;;;;;;;21.00;1.00;;;;;;10332085;28;84904;-55
2022/05/17 12:18:26;;;;;;;;;;;21.00;1.00;;;;;;10332429;28;85899;-57
2022/05/17 12:23:44;;;;;;;;;;;20.80;99.90;;;;;;10326211;28;85049;-57
2022/05/17 12:28:49;;;;;;;;;;;20.80;99.90;;;;;;10320960;28;84828;-53
2022/05/17 12:33:50;;;;;;;;;;;20.70;99.90;;;;;;10314583;28;84331;-55
2022/05/17 12:44:19;;;;;;;;;;;20.90;99.90;;;;;;10308408;28;85098;-54
2022/05/17 12:49:24;;;;;;;;;;;21.00;99.90;;;;;;10308488;28;84643;-52
2022/05/17 12:54:29;;;;;;;;;;;21.00;99.90;;;;;;10312739;28;84174;-58
2022/05/17 12:59:31;;;;;;;;;;;21.00;99.90;;;;;;10316675;28;84955;-57
2022/05/17 13:04:33;;;;;;;;;;;21.10;99.90;;;;;;10331101;28;84918;-56
2022/05/17 13:09:34;;;;;;;;;;;21.30;99.90;;;;;;10330398;28;84868;-56
2022/05/17 13:14:34;;;;;;;;;;;21.50;99.90;;;;;;10332536;28;84102;-57
2022/05/17 13:19:37;;;;;;;;;;;21.80;99.90;;;;;;10330135;28;84722;-56
2022/05/17 13:24:41;;;;;;;;;;;21.70;99.90;;;;;;10313223;28;85117;-58
2022/05/17 13:29:41;;;;;;;;;;;21.70;99.90;;;;;;10325956;28;85439;-54
2022/05/17 13:34:42;;;;;;;;;;;21.90;99.90;;;;;;10314341;28;84306;-55
2022/05/17 13:39:47;;;;;;;;;;;22.40;99.90;;;;;;10326896;28;85025;-58
2022/05/17 13:44:53;;;;;;;;;;;22.90;5.60;;;;;;10324369;28;85067;-56
2022/05/17 13:49:58;;;;;;;;;;;23.00;1.00;;;;;;10328393;28;85069;-59
2022/05/17 13:55:02;;;;;;;;;;;23.20;1.00;;;;;;10308341;28;84178;-55
2022/05/17 14:00:06;;;;;;;;;;;23.40;1.00;;;;;;10306193;28;85061;-57
2022/05/17 14:05:33;;;;;;;;;;;23.60;1.00;;;;;;10305808;28;84577;-60
2022/05/17 14:15:53;;;;;;;;;;;23.80;1.00;;;;;;10304742;28;84259;-59
2022/05/17 14:20:55;;;;;;;;;;;23.60;1.00;;;;;;10307010;28;84981;-57
2022/05/17 14:25:55;;;;;;;;;;;23.40;1.00;;;;;;10318191;28;84145;-59
2022/05/17 14:30:56;;;;;;;;;;;23.40;1.00;;;;;;10314424;28;85018;-54
2022/05/17 14:35:57;;;;;;;;;;;23.10;1.00;;;;;;10303783;28;84868;-59
2022/05/17 14:40:57;;;;;;;;;;;23.20;1.00;;;;;;10281181;28;84610;-55
2022/05/17 14:45:58;;;;;;;;;;;23.60;1.00;;;;;;10268570;28;84187;-58
2022/05/17 14:51:01;;;;;;;;;;;23.80;1.00;;;;;;10302045;28;84507;-54
2022/05/17 14:56:02;;;;;;;;;;;23.90;1.00;;;;;;10302230;28;84543;-57
2022/05/17 15:01:04;;;;;;;;;;;23.60;1.00;;;;;;10296871;28;84292;-56
2022/05/17 15:06:04;;;;;;;;;;;23.30;1.00;;;;;;10296366;28;84257;-54
2022/05/17 15:11:05;;;;;;;;;;;23.50;1.00;;;;;;10317790;28;85764;-50
2022/05/17 15:16:09;;;;;;;;;;;23.30;1.00;;;;;;10301932;28;84303;-55
2022/05/17 15:21:09;;;;;;;;;;;23.00;1.00;;;;;;10318262;28;84956;-55
2022/05/17 15:26:10;;;;;;;;;;;23.10;1.00;;;;;;10323827;28;84883;-57
2022/05/17 15:31:14;;;;;;;;;;;23.00;1.00;;;;;;10325846;28;84968;-56
2022/05/17 15:36:16;;;;;;;;;;;23.10;1.00;;;;;;10317015;28;84919;-58
2022/05/17 15:41:17;;;;;;;;;;;22.90;1.00;;;;;;10326373;28;84314;-57
2022/05/17 15:46:19;;;;;;;;;;;22.90;1.00;;;;;;10327611;28;84801;-50
2022/05/17 15:56:43;;;;;;;;;;;22.40;99.90;;;;;;10285847;28;84930;-55
2022/05/17 16:01:46;;;;;;;;;;;22.40;99.90;;;;;;10321322;28;84897;-57
2022/05/17 16:06:49;;;;;;;;;;;22.30;99.90;;;;;;10326929;28;84117;-56
2022/05/17 16:11:50;;;;;;;;;;;22.50;99.90;;;;;;10289960;28;84277;-55
2022/05/17 16:16:53;;;;;;;;;;;22.60;99.90;;;;;;10267713;28;87114;-56
2022/05/17 16:21:54;;;;;;;;;;;22.50;99.90;;;;;;10323331;28;84359;-55
2022/05/17 16:26:55;;;;;;;;;;;22.50;99.90;;;;;;10333184;28;83971;-55
2022/05/17 16:31:56;;;;;;;;;;;22.60;99.90;;;;;;10295521;28;84012;-56
2022/05/17 16:36:59;;;;;;;;;;;22.30;99.90;;;;;;10291794;28;84267;-57
2022/05/17 16:42:01;;;;;;;;;;;22.10;99.90;;;;;;10327803;28;84777;-56
2022/05/17 16:47:01;;;;;;;;;;;22.00;99.90;;;;;;10332138;28;84107;-56
2022/05/17 16:52:03;;;;;;;;;;;21.80;1.00;;;;;;10330626;28;85023;-55
2022/05/17 16:57:04;;;;;;;;;;;21.80;1.00;;;;;;10331699;28;84119;-55
2022/05/17 17:02:09;;;;;;;;;;;21.80;1.00;;;;;;10294998;28;84148;-54
2022/05/17 17:07:10;;;;;;;;;;;21.80;99.90;;;;;;10291950;28;84145;-55
2022/05/17 17:12:11;;;;;;;;;;;21.70;99.90;;;;;;10328384;28;85132;-55
2022/05/17 17:17:13;;;;;;;;;;;21.50;99.90;;;;;;10331253;28;85427;-57
2022/05/17 17:22:14;;;;;;;;;;;21.40;99.90;;;;;;10275752;28;85352;-56
2022/05/17 17:27:14;;;;;;;;;;;21.40;99.90;;;;;;10272510;28;85119;-57
2022/05/17 17:37:34;;;;;;;;;;;21.10;1.00;;;;;;10330436;28;84880;-57
2022/05/17 17:42:35;;;;;;;;;;;21.00;1.00;;;;;;10302468;28;84114;-56
2022/05/17 17:47:35;;;;;;;;;;;21.00;1.00;;;;;;10289107;28;85143;-59
2022/05/17 17:52:36;;;;;;;;;;;20.90;1.00;;;;;;10317792;28;84950;-58
2022/05/17 17:57:37;;;;;;;;;;;20.80;1.00;;;;;;10320033;22;84213;-50
2022/05/17 18:02:38;;;;;;;;;;;20.80;1.00;;;;;;10288197;28;85016;-50
2022/05/17 18:07:38;;;;;;;;;;;20.70;1.00;;;;;;10288137;28;84207;-49
2022/05/17 18:12:39;;;;;;;;;;;20.60;1.00;;;;;;10259566;28;85622;-50
2022/05/17 18:17:42;;;;;;;;;;;20.60;1.00;;;;;;10247080;28;84904;-49
2022/05/17 18:22:42;;;;;;;;;;;20.60;1.00;;;;;;10274903;28;84378;-51
2022/05/17 18:27:46;;;;;;;;;;;20.50;1.00;;;;;;10288166;28;84812;-52
2022/05/17 18:32:50;;;;;;;;;;;20.60;1.00;;;;;;10258572;28;84111;-51
2022/05/17 18:37:51;;;;;;;;;;;20.60;1.00;;;;;;10247400;28;84080;-50
2022/05/17 18:42:52;;;;;;;;;;;20.50;1.00;;;;;;10258377;28;84252;-51
2022/05/17 18:47:59;;;;;;;;;;;20.40;1.00;;;;;;10269676;28;85428;-51
2022/05/17 18:52:59;;;;;;;;;;;20.40;1.00;;;;;;10257432;28;85069;-53
2022/05/17 18:58:00;;;;;;;;;;;20.30;1.00;;;;;;10246365;28;84678;-50
2022/05/17 19:03:03;;;;;;;;;;;20.20;1.00;;;;;;10258558;28;85954;-50
2022/05/17 19:13:35;;;;;;;;;;;20.00;1.00;;;;;;10253445;28;84249;-50
2022/05/17 19:18:40;;;;;;;;;;;19.90;1.00;;;;;;10246187;28;84296;-52
2022/05/17 19:23:41;;;;;;;;;;;19.90;1.00;;;;;;10245779;28;84681;-54
2022/05/17 19:28:42;;;;;;;;;;;19.80;1.00;;;;;;10245196;28;85320;-50
2022/05/17 19:33:42;;;;;;;;;;;19.70;1.00;;;;;;10262625;28;85224;-50
2022/05/17 19:44:05;;;;;;;;;;;19.60;1.00;;;;;;10228589;28;85901;-53
2022/05/17 19:49:06;;;;;;;;;;;19.50;1.00;;;;;;10227847;28;84197;-50
2022/05/17 19:54:06;;;;;;;;;;;19.40;1.00;;;;;;10265176;28;84987;-51
2022/05/17 19:59:07;;;;;;;;;;;19.20;1.00;;;;;;10290021;28;84176;-52
2022/05/17 20:04:08;;;;;;;;;;;19.20;1.00;;;;;;10252934;28;84927;-47
2022/05/17 20:09:08;;;;;;;;;;;19.10;1.00;;;;;;10250727;28;84745;-50
2022/05/17 20:14:09;;;;;;;;;;;19.00;1.00;;;;;;10289250;28;84210;-53
2022/05/17 20:19:09;;;;;;;;;;;19.00;1.00;;;;;;10291212;28;84874;-53
2022/05/17 20:24:13;;;;;;;;;;;18.90;1.00;;;;;;10253132;28;85334;-53
2022/05/17 20:29:18;;;;;;;;;;;18.90;1.00;;;;;;10249868;28;84938;-56
2022/05/17 20:34:18;;;;;;;;;;;18.90;1.00;;;;;;10288373;28;84968;-53
2022/05/17 20:39:22;;;;;;;;;;;18.80;1.00;;;;;;10289792;28;84011;-51
2022/05/17 20:44:23;;;;;;;;;;;18.70;1.00;;;;;;10231291;28;86667;-53
2022/05/17 20:49:24;;;;;;;;;;;18.60;1.00;;;;;;10249136;28;84929;-54
2022/05/17 20:54:26;;;;;;;;;;;18.50;1.00;;;;;;10288269;28;84821;-49
2022/05/17 20:59:28;;;;;;;;;;;18.60;1.00;;;;;;10287981;28;85330;-51
2022/05/17 21:04:28;;;;;;;;;;;18.50;1.00;;;;;;10263123;28;85000;-51
2022/05/17 21:09:29;;;;;;;;;;;18.50;1.00;;;;;;10232304;28;85346;-51
2022/05/17 21:14:30;;;;;;;;;;;18.50;3.20;;;;;;10242913;28;84631;-52
2022/05/17 21:19:32;;;;;;;;;;;18.50;13.00;;;;;;10251256;28;84739;-55
2022/05/17 21:24:33;;;;;;;;;;;18.40;12.30;;;;;;10261274;28;84879;-52
2022/05/17 21:29:35;;;;;;;;;;;18.40;10.40;;;;;;10245681;28;84382;-53
2022/05/17 21:34:36;;;;;;;;;;;18.30;22.70;;;;;;10263892;28;84760;-49
2022/05/17 21:39:39;;;;;;;;;;;18.30;36.60;;;;;;10246524;28;84724;-48
2022/05/17 21:44:39;;;;;;;;;;;18.20;58.00;;;;;;10247040;28;85459;-51
2022/05/17 21:49:40;;;;;;;;;;;18.10;75.90;;;;;;10248632;28;84243;-53
2022/05/17 21:54:41;;;;;;;;;;;18.10;91.80;;;;;;10231616;28;84856;-49
2022/05/17 21:59:41;;;;;;;;;;;18.10;94.60;;;;;;10247817;28;85069;-50
2022/05/17 22:04:42;;;;;;;;;;;18.10;84.90;;;;;;10230254;28;85017;-52
2022/05/17 22:09:43;;;;;;;;;;;18.10;85.30;;;;;;10247722;28;84386;-48
2022/05/17 22:14:43;;;;;;;;;;;18.20;76.50;;;;;;10251894;28;84042;-53
2022/05/17 22:19:45;;;;;;;;;;;18.20;55.30;;;;;;10287800;28;84322;-51
2022/05/17 22:24:46;;;;;;;;;;;18.20;72.60;;;;;;10286767;28;84920;-55
2022/05/17 22:29:46;;;;;;;;;;;18.10;71.20;;;;;;10286304;28;85105;-50
2022/05/17 22:34:47;;;;;;;;;;;18.10;86.00;;;;;;10255682;28;84976;-46
2022/05/17 22:39:47;;;;;;;;;;;18.00;94.60;;;;;;10244942;28;84115;-52
2022/05/17 22:50:23;;;;;;;;;;;17.90;99.90;;;;;;10169367;28;84349;-49
2022/05/17 22:55:24;;;;;;;;;;;18.00;93.20;;;;;;10244327;28;84204;-50
2022/05/17 23:00:24;;;;;;;;;;;18.00;91.80;;;;;;10226634;28;86369;-49
2022/05/17 23:05:26;;;;;;;;;;;17.90;86.90;;;;;;10226983;28;86602;-48
2022/05/17 23:10:27;;;;;;;;;;;17.90;80.30;;;;;;10243942;28;84261;-49
2022/05/17 23:15:27;;;;;;;;;;;17.90;76.30;;;;;;10244434;28;84142;-50
2022/05/17 23:20:28;;;;;;;;;;;17.90;85.30;;;;;;10211506;28;84880;-50
2022/05/17 23:30:49;;;;;;;;;;;17.70;99.90;;;;;;10241908;28;84121;-51
2022/05/17 23:35:49;;;;;;;;;;;17.60;99.90;;;;;;10267948;28;84465;-49
2022/05/17 23:40:50;;;;;;;;;;;17.60;99.90;;;;;;10291037;28;83997;-50
2022/05/17 23:45:51;;;;;;;;;;;17.60;99.90;;;;;;10291084;28;84942;-50
2022/05/17 23:50:51;;;;;;;;;;;17.60;99.90;;;;;;10284748;28;84164;-49
2022/05/17 23:55:52;;;;;;;;;;;17.50;99.90;;;;;;10250716;28;84933;-50
